createdAt,value
2019-01-17T00:00:40.752Z,4.80
2019-01-17T00:03:37.495Z,4.80
2019-01-17T00:06:35.775Z,4.70
2019-01-17T00:09:42.347Z,4.70
2019-01-17T00:12:30.084Z,4.80
2019-01-17T00:15:18.161Z,4.80
2019-01-17T00:18:07.391Z,4.80
2019-01-17T00:20:57.182Z,4.80
2019-01-17T00:23:45.314Z,4.80
2019-01-17T00:26:47.087Z,4.90
2019-01-17T00:29:39.213Z,4.90
2019-01-17T00:32:41.283Z,4.90
2019-01-17T00:35:45.812Z,5.00
2019-01-17T00:38:33.953Z,5.00
2019-01-17T00:41:26.191Z,5.00
2019-01-17T00:44:14.750Z,5.00
2019-01-17T00:46:56.959Z,5.00
2019-01-17T00:49:40.487Z,5.00
2019-01-17T00:52:29.752Z,5.00
2019-01-17T00:55:28.544Z,5.00
2019-01-17T00:58:23.654Z,5.00
2019-01-17T01:01:17.120Z,5.00
2019-01-17T01:03:58.893Z,5.00
2019-01-17T01:06:51.562Z,5.00
2019-01-17T01:09:36.018Z,5.00
2019-01-17T01:12:24.570Z,5.00
2019-01-17T01:15:12.730Z,5.00
2019-01-17T01:18:01.266Z,5.00
2019-01-17T01:20:45.109Z,4.90
2019-01-17T01:23:33.661Z,4.90
2019-01-17T01:26:15.456Z,4.90
2019-01-17T01:29:04.007Z,4.90
2019-01-17T01:31:51.534Z,4.90
2019-01-17T01:34:35.469Z,4.90
2019-01-17T01:37:33.966Z,4.90
2019-01-17T01:40:26.614Z,4.90
2019-01-17T01:43:14.553Z,4.90
2019-01-17T01:46:13.149Z,4.80
2019-01-17T01:49:05.174Z,4.90
2019-01-17T01:52:01.101Z,4.90
2019-01-17T01:54:31.218Z,4.80
2019-01-17T01:57:01.528Z,4.90
2019-01-17T01:59:31.758Z,4.90
2019-01-17T02:02:01.908Z,4.90
2019-01-17T02:04:31.842Z,4.90
2019-01-17T02:07:02.647Z,5.00
2019-01-17T02:09:32.798Z,5.00
2019-01-17T02:12:03.020Z,5.00
2019-01-17T02:14:34.625Z,4.90
2019-01-17T02:17:05.137Z,5.00
2019-01-17T02:19:35.231Z,5.00
2019-01-17T02:22:05.527Z,5.10
2019-01-17T02:24:35.559Z,5.00
2019-01-17T02:27:05.805Z,4.90
2019-01-17T02:29:35.869Z,4.90
2019-01-17T02:32:06.654Z,4.90
2019-01-17T02:34:36.861Z,4.70
2019-01-17T02:37:07.122Z,4.60
2019-01-17T02:39:37.576Z,4.50
2019-01-17T02:42:07.768Z,4.50
2019-01-17T02:44:39.197Z,4.40
2019-01-17T02:47:09.647Z,4.40
2019-01-17T02:49:40.085Z,4.50
2019-01-17T02:52:10.069Z,4.50
2019-01-17T02:54:40.436Z,4.40
2019-01-17T02:57:17.924Z,4.40
2019-01-17T02:59:48.457Z,4.30
2019-01-17T03:02:19.083Z,4.30
2019-01-17T03:04:49.404Z,4.30
2019-01-17T03:07:19.424Z,4.30
2019-01-17T03:09:49.776Z,4.20
2019-01-17T03:12:20.173Z,4.20
2019-01-17T03:14:50.102Z,4.10
2019-01-17T03:17:20.204Z,4.20
2019-01-17T03:19:50.823Z,4.20
2019-01-17T03:22:20.907Z,4.20
2019-01-17T03:24:50.883Z,4.10
2019-01-17T03:27:20.995Z,4.10
2019-01-17T03:29:51.030Z,4.10
2019-01-17T03:32:21.241Z,4.10
2019-01-17T03:34:51.743Z,4.10
2019-01-17T03:37:21.894Z,4.10
2019-01-17T03:39:51.921Z,4.10
2019-01-17T03:42:22.281Z,4.10
2019-01-17T03:44:52.658Z,4.10
2019-01-17T03:47:22.796Z,4.10
2019-01-17T03:49:53.615Z,4.10
2019-01-17T03:52:23.531Z,4.20
2019-01-17T03:54:54.108Z,4.20
2019-01-17T03:57:24.560Z,4.10
2019-01-17T03:59:54.529Z,4.10
2019-01-17T04:02:25.580Z,4.10
2019-01-17T04:04:56.213Z,4.20
2019-01-17T04:07:26.302Z,4.20
2019-01-17T04:09:56.413Z,4.20
2019-01-17T04:12:27.232Z,4.20
2019-01-17T04:14:57.192Z,4.20
2019-01-17T04:17:27.194Z,4.20
2019-01-17T04:19:57.405Z,4.20
2019-01-17T04:22:27.443Z,4.30
2019-01-17T04:24:57.634Z,4.30
2019-01-17T04:27:28.999Z,4.30
2019-01-17T04:29:59.232Z,4.30
2019-01-17T04:32:29.248Z,4.30
2019-01-17T04:34:59.824Z,4.30
2019-01-17T04:37:29.721Z,4.30
2019-01-17T04:39:59.914Z,4.30
2019-01-17T04:42:33.181Z,4.40
2019-01-17T04:45:03.134Z,4.40
2019-01-17T04:47:33.161Z,4.30
2019-01-17T04:50:03.429Z,4.40
2019-01-17T04:52:33.712Z,4.40
2019-01-17T04:55:05.435Z,4.40
2019-01-17T04:57:35.747Z,4.30
2019-01-17T05:00:24.844Z,4.30
2019-01-17T05:02:54.922Z,4.40
2019-01-17T05:05:25.288Z,4.40
2019-01-17T05:07:55.407Z,4.40
2019-01-17T05:10:25.569Z,4.40
2019-01-17T05:12:55.540Z,4.40
2019-01-17T05:15:25.757Z,4.50
2019-01-17T05:17:55.946Z,4.50
2019-01-17T05:20:25.911Z,4.50
2019-01-17T05:22:56.233Z,4.50
2019-01-17T05:25:26.645Z,4.50
2019-01-17T05:27:56.681Z,4.50
2019-01-17T05:30:26.802Z,4.50
2019-01-17T05:32:57.026Z,4.50
2019-01-17T05:35:26.936Z,4.50
2019-01-17T05:37:57.464Z,4.50
2019-01-17T05:40:27.781Z,4.60
2019-01-17T05:42:57.813Z,4.60
2019-01-17T05:45:28.028Z,4.60
2019-01-17T05:47:58.452Z,4.60
2019-01-17T05:50:28.470Z,4.60
2019-01-17T05:52:58.700Z,4.60
2019-01-17T05:55:28.804Z,4.60
2019-01-17T05:58:00.673Z,4.60
2019-01-17T06:00:31.005Z,4.70
2019-01-17T06:03:01.436Z,4.60
2019-01-17T06:05:31.562Z,4.70
2019-01-17T06:08:02.108Z,4.70
2019-01-17T06:10:32.201Z,4.60
2019-01-17T06:13:02.336Z,4.60
2019-01-17T06:15:33.260Z,4.60
2019-01-17T06:18:03.461Z,4.60
2019-01-17T06:20:33.493Z,4.60
2019-01-17T06:23:03.903Z,4.50
2019-01-17T06:25:34.445Z,4.50
2019-01-17T06:28:04.436Z,4.50
2019-01-17T06:30:34.507Z,4.50
2019-01-17T06:33:05.352Z,4.50
2019-01-17T06:35:35.597Z,4.50
2019-01-17T06:38:06.019Z,4.50
2019-01-17T06:40:36.624Z,4.50
2019-01-17T06:43:06.940Z,4.60
2019-01-17T06:45:37.171Z,4.60
2019-01-17T06:48:07.368Z,4.60
2019-01-17T06:50:37.823Z,4.60
2019-01-17T06:53:08.008Z,4.50
2019-01-17T06:55:38.237Z,4.50
2019-01-17T06:58:08.296Z,4.50
2019-01-17T07:00:38.291Z,4.50
2019-01-17T07:03:09.028Z,4.50
2019-01-17T07:05:38.940Z,4.40
2019-01-17T07:08:09.522Z,4.40
2019-01-17T07:10:40.420Z,4.40
2019-01-17T07:13:10.562Z,4.40
2019-01-17T07:15:40.771Z,4.30
2019-01-17T07:18:11.042Z,4.30
2019-01-17T07:20:41.308Z,4.30
2019-01-17T07:23:11.768Z,4.20
2019-01-17T07:25:42.439Z,4.20
2019-01-17T07:28:12.703Z,4.30
2019-01-17T07:30:42.933Z,4.20
2019-01-17T07:33:12.979Z,4.20
2019-01-17T07:35:43.370Z,4.20
2019-01-17T07:38:13.263Z,4.20
2019-01-17T07:40:43.793Z,4.20
2019-01-17T07:43:13.924Z,4.20
2019-01-17T07:45:43.948Z,4.20
2019-01-17T07:48:14.340Z,4.20
2019-01-17T07:50:44.488Z,4.20
2019-01-17T07:53:14.916Z,4.20
2019-01-17T07:55:47.714Z,4.20
2019-01-17T07:58:16.929Z,4.20
2019-01-17T08:00:47.244Z,4.20
2019-01-17T08:03:17.405Z,4.20
2019-01-17T08:05:47.382Z,4.20
2019-01-17T08:08:17.900Z,4.20
2019-01-17T08:10:48.205Z,4.30
2019-01-17T08:13:18.362Z,4.30
2019-01-17T08:15:48.265Z,4.30
2019-01-17T08:18:18.721Z,4.30
2019-01-17T08:20:48.913Z,4.30
2019-01-17T08:23:20.388Z,4.40
2019-01-17T08:25:54.152Z,4.40
2019-01-17T08:28:22.534Z,4.50
2019-01-17T08:30:52.763Z,4.40
2019-01-17T08:33:22.985Z,4.50
2019-01-17T08:35:53.329Z,4.50
2019-01-17T08:38:23.549Z,4.50
2019-01-17T08:40:54.361Z,4.60
2019-01-17T08:43:24.303Z,4.50
2019-01-17T08:45:54.329Z,4.60
2019-01-17T08:48:24.720Z,4.60
2019-01-17T08:50:55.393Z,4.70
2019-01-17T08:53:25.312Z,4.70
2019-01-17T08:56:00.737Z,4.70
2019-01-17T08:58:27.460Z,4.70
2019-01-17T09:00:57.500Z,4.80
2019-01-17T09:03:27.693Z,4.80
2019-01-17T09:05:57.932Z,4.80
2019-01-17T09:08:28.051Z,4.80
2019-01-17T09:10:58.156Z,4.80
2019-01-17T09:13:28.702Z,4.90
2019-01-17T09:15:58.967Z,4.90
2019-01-17T09:18:29.249Z,4.90
2019-01-17T09:20:59.003Z,4.90
2019-01-17T09:23:28.876Z,4.90
2019-01-17T09:25:58.956Z,4.90
2019-01-17T09:28:29.680Z,4.90
2019-01-17T09:30:59.964Z,4.90
2019-01-17T09:33:30.050Z,4.90
2019-01-17T09:36:00.189Z,5.00
2019-01-17T09:38:30.424Z,5.00
2019-01-17T09:41:03.013Z,5.10
2019-01-17T09:43:33.347Z,5.10
2019-01-17T09:46:03.369Z,5.30
2019-01-17T09:48:33.703Z,5.50
2019-01-17T09:51:04.336Z,5.60
2019-01-17T09:53:34.448Z,5.60
2019-01-17T09:56:04.648Z,5.70
2019-01-17T09:58:35.619Z,5.70
2019-01-17T10:01:05.820Z,5.70
2019-01-17T10:03:35.905Z,5.60
2019-01-17T10:06:06.184Z,5.70
2019-01-17T10:08:36.592Z,5.60
2019-01-17T10:11:06.840Z,5.60
2019-01-17T10:13:36.843Z,5.70
2019-01-17T10:16:27.760Z,5.60
2019-01-17T10:19:23.803Z,5.50
2019-01-17T10:22:29.646Z,5.50
2019-01-17T10:25:32.304Z,5.40
2019-01-17T10:28:54.572Z,5.40
2019-01-17T10:32:14.278Z,5.40
2019-01-17T10:35:19.372Z,5.40
2019-01-17T10:38:13.383Z,5.40
2019-01-17T10:41:24.458Z,5.40
2019-01-17T10:44:15.549Z,5.50
2019-01-17T10:50:41.532Z,5.40
2019-01-17T10:53:39.340Z,5.30
2019-01-17T10:56:58.044Z,5.40
2019-01-17T10:59:39.027Z,5.30
2019-01-17T11:02:20.024Z,5.30
2019-01-17T11:05:37.135Z,5.20
2019-01-17T11:09:00.299Z,5.20
2019-01-17T11:12:16.909Z,5.10
2019-01-17T11:15:05.772Z,4.90
2019-01-17T11:18:14.154Z,4.60
2019-01-17T11:21:47.157Z,4.60
2019-01-17T11:24:37.681Z,4.50
2019-01-17T11:27:59.693Z,4.60
2019-01-17T11:30:48.004Z,4.60
2019-01-17T11:33:58.295Z,4.50
2019-01-17T11:37:14.912Z,4.40
2019-01-17T11:40:17.880Z,4.00
2019-01-17T11:43:13.514Z,3.80
2019-01-17T11:49:05.607Z,3.60
2019-01-17T11:52:26.694Z,3.20
2019-01-17T11:55:41.192Z,3.50
2019-01-17T11:58:39.268Z,3.40
2019-01-17T12:02:01.730Z,3.30
2019-01-17T12:04:36.355Z,3.50
2019-01-17T12:07:15.793Z,3.50
2019-01-17T12:09:45.811Z,3.30
2019-01-17T12:12:20.636Z,3.30
2019-01-17T12:14:51.027Z,3.30
2019-01-17T12:17:20.966Z,3.20
2019-01-17T12:19:51.593Z,3.20
2019-01-17T12:22:22.137Z,3.20
2019-01-17T12:24:52.276Z,3.20
2019-01-17T12:27:22.459Z,3.30
2019-01-17T12:29:52.486Z,3.20
2019-01-17T12:32:22.635Z,3.20
2019-01-17T12:34:53.056Z,3.30
2019-01-17T12:37:22.963Z,3.20
2019-01-17T12:39:53.480Z,3.10
2019-01-17T12:42:27.717Z,3.10
2019-01-17T12:44:57.595Z,3.20
2019-01-17T12:47:27.877Z,3.30
2019-01-17T12:50:03.000Z,3.30
2019-01-17T12:52:33.733Z,3.40
2019-01-17T12:55:05.892Z,3.40
2019-01-17T12:58:05.706Z,3.50
2019-01-17T13:00:56.699Z,3.40
2019-01-17T13:03:25.680Z,3.40
2019-01-17T13:05:56.240Z,3.40
2019-01-17T13:08:26.604Z,3.50
2019-01-17T13:10:57.526Z,3.60
2019-01-17T13:13:28.131Z,3.70
2019-01-17T13:15:58.345Z,3.60
2019-01-17T13:18:28.455Z,3.50
2019-01-17T13:20:58.850Z,3.50
2019-01-17T13:23:29.020Z,3.50
2019-01-17T13:26:13.027Z,3.50
2019-01-17T13:28:43.233Z,3.50
2019-01-17T13:31:13.402Z,3.60
2019-01-17T13:33:44.379Z,3.60
2019-01-17T13:36:14.499Z,3.60
2019-01-17T13:38:44.743Z,3.70
2019-01-17T13:41:15.016Z,3.70
2019-01-17T13:43:45.043Z,3.80
2019-01-17T13:46:15.773Z,3.90
2019-01-17T13:48:46.124Z,4.00
2019-01-17T13:51:16.314Z,4.00
2019-01-17T13:53:46.460Z,4.00
2019-01-17T13:56:17.100Z,4.10
2019-01-17T13:58:47.224Z,4.20
2019-01-17T14:01:17.474Z,4.20
2019-01-17T14:03:59.205Z,4.20
2019-01-17T14:06:29.271Z,4.20
2019-01-17T14:09:02.323Z,4.20
2019-01-17T14:11:32.833Z,4.30
2019-01-17T14:14:03.660Z,4.30
2019-01-17T14:16:33.815Z,4.30
2019-01-17T14:19:03.948Z,4.30
2019-01-17T14:21:35.519Z,4.30
2019-01-17T14:24:11.534Z,4.30
2019-01-17T14:26:43.237Z,4.30
2019-01-17T14:29:14.689Z,4.30
2019-01-17T14:31:44.856Z,4.40
2019-01-17T14:34:15.042Z,4.40
2019-01-17T14:36:51.402Z,4.40
2019-01-17T14:39:21.852Z,4.40
2019-01-17T14:41:51.736Z,4.40
2019-01-17T14:44:22.501Z,4.40
2019-01-17T14:46:52.593Z,4.40
2019-01-17T14:49:22.613Z,4.50
2019-01-17T14:51:53.476Z,4.60
2019-01-17T14:54:23.784Z,4.60
2019-01-17T14:57:01.742Z,4.70
2019-01-17T14:59:31.496Z,4.80
2019-01-17T15:02:01.515Z,4.70
2019-01-17T15:04:31.628Z,4.60
2019-01-17T15:07:01.870Z,4.60
2019-01-17T15:09:32.317Z,4.50
2019-01-17T15:12:02.611Z,4.30
2019-01-17T15:14:32.557Z,4.30
2019-01-17T15:17:02.760Z,4.30
2019-01-17T15:19:33.109Z,4.00
2019-01-17T15:22:08.044Z,3.80
2019-01-17T15:24:38.668Z,3.60
2019-01-17T15:27:09.504Z,3.40
2019-01-17T15:29:39.401Z,3.30
2019-01-17T15:32:09.822Z,3.20
2019-01-17T15:34:39.963Z,3.00
2019-01-17T15:37:10.192Z,2.80
2019-01-17T15:39:40.394Z,2.80
2019-01-17T15:42:10.324Z,2.50
2019-01-17T15:44:41.044Z,2.70
2019-01-17T15:47:13.253Z,2.80
2019-01-17T15:49:43.349Z,2.90
2019-01-17T15:52:13.363Z,2.80
2019-01-17T15:54:43.669Z,2.80
2019-01-17T15:57:16.801Z,3.00
2019-01-17T15:59:47.548Z,3.10
2019-01-17T16:02:17.598Z,3.00
2019-01-17T16:04:47.564Z,2.90
2019-01-17T16:07:17.649Z,2.80
2019-01-17T16:09:47.916Z,2.70
2019-01-17T16:12:17.915Z,2.70
2019-01-17T16:14:48.576Z,2.80
2019-01-17T16:17:18.464Z,2.80
2019-01-17T16:19:48.386Z,2.70
2019-01-17T16:25:04.204Z,2.50
2019-01-17T16:27:41.496Z,2.40
2019-01-17T16:30:09.024Z,2.40
2019-01-17T16:32:39.194Z,2.40
2019-01-17T16:35:09.366Z,2.30
2019-01-17T16:37:40.159Z,2.10
2019-01-17T16:40:10.731Z,1.90
2019-01-17T16:42:40.924Z,1.90
2019-01-17T16:45:12.992Z,1.80
2019-01-17T16:47:42.966Z,1.80
2019-01-17T16:50:17.866Z,1.80
2019-01-17T16:52:48.911Z,2.00
2019-01-17T16:55:19.364Z,1.90
2019-01-17T16:57:49.835Z,1.80
2019-01-17T17:00:25.845Z,1.80
2019-01-17T17:02:56.124Z,1.80
2019-01-17T17:05:26.540Z,2.00
2019-01-17T17:07:56.440Z,1.90
2019-01-17T17:10:26.417Z,2.00
2019-01-17T17:12:56.448Z,2.00
2019-01-17T17:15:26.768Z,1.90
2019-01-17T17:17:56.901Z,1.90
2019-01-17T17:20:27.184Z,1.80
2019-01-17T17:22:57.532Z,1.70
2019-01-17T17:25:27.801Z,1.70
2019-01-17T17:27:57.778Z,1.70
2019-01-17T17:30:28.576Z,1.70
2019-01-17T17:32:58.896Z,1.70
2019-01-17T17:35:28.870Z,1.70
2019-01-17T17:38:02.273Z,1.70
2019-01-17T17:40:34.200Z,1.70
2019-01-17T17:43:04.780Z,1.70
2019-01-17T17:45:35.056Z,1.70
2019-01-17T17:48:05.621Z,1.70
2019-01-17T17:50:36.248Z,1.70
2019-01-17T17:53:06.413Z,1.80
2019-01-17T17:55:36.562Z,1.80
2019-01-17T17:58:07.117Z,1.80
2019-01-17T18:00:54.692Z,1.80
2019-01-17T18:03:25.090Z,1.80
2019-01-17T18:05:55.515Z,1.80
2019-01-17T18:08:25.688Z,1.70
2019-01-17T18:10:55.746Z,1.80
2019-01-17T18:13:26.112Z,1.70
2019-01-17T18:15:56.164Z,1.70
2019-01-17T18:18:26.139Z,1.70
2019-01-17T18:20:56.761Z,1.70
2019-01-17T18:23:26.852Z,1.70
2019-01-17T18:25:56.904Z,1.80
2019-01-17T18:28:26.832Z,1.80
2019-01-17T18:30:57.360Z,1.90
2019-01-17T18:33:27.240Z,1.90
2019-01-17T18:35:57.669Z,1.90
2019-01-17T18:38:27.732Z,1.80
2019-01-17T18:40:57.943Z,1.90
2019-01-17T18:43:28.065Z,2.00
2019-01-17T18:45:58.593Z,2.00
2019-01-17T18:48:28.784Z,1.90
2019-01-17T18:50:59.329Z,2.00
2019-01-17T18:53:29.631Z,2.00
2019-01-17T18:55:59.685Z,2.10
2019-01-17T18:58:30.221Z,2.10
2019-01-17T19:01:01.238Z,2.10
2019-01-17T19:03:31.447Z,2.00
2019-01-17T19:06:02.080Z,1.90
2019-01-17T19:08:32.141Z,1.90
2019-01-17T19:11:02.430Z,1.80
2019-01-17T19:13:32.643Z,2.10
2019-01-17T19:16:03.149Z,2.10
2019-01-17T19:18:33.631Z,2.00
2019-01-17T19:21:04.081Z,1.90
2019-01-17T19:23:34.244Z,1.90
2019-01-17T19:26:04.289Z,2.00
2019-01-17T19:28:34.721Z,2.00
2019-01-17T19:31:05.452Z,1.90
2019-01-17T19:33:35.572Z,1.90
2019-01-17T19:36:09.438Z,1.90
2019-01-17T19:38:39.327Z,1.90
2019-01-17T19:41:09.818Z,2.00
2019-01-17T19:43:40.038Z,2.00
2019-01-17T19:46:10.404Z,2.00
2019-01-17T19:48:40.603Z,1.80
2019-01-17T19:51:10.839Z,1.80
2019-01-17T19:53:40.917Z,1.80
2019-01-17T19:56:11.409Z,1.80
2019-01-17T19:58:41.536Z,1.80
2019-01-17T20:01:11.916Z,1.90
2019-01-17T20:03:41.943Z,1.80
2019-01-17T20:06:12.149Z,1.80
2019-01-17T20:08:42.628Z,1.70
2019-01-17T20:11:13.258Z,1.60
2019-01-17T20:13:43.583Z,1.70
2019-01-17T20:16:13.851Z,1.70
2019-01-17T20:18:44.040Z,1.70
2019-01-17T20:21:14.336Z,1.80
2019-01-17T20:23:44.554Z,1.70
2019-01-17T20:26:14.870Z,1.80
2019-01-17T20:28:44.870Z,1.90
2019-01-17T20:31:14.963Z,1.80
2019-01-17T20:33:44.920Z,1.80
2019-01-17T20:36:15.092Z,1.80
2019-01-17T20:38:45.494Z,1.80
2019-01-17T20:41:16.104Z,1.80
2019-01-17T20:43:46.459Z,1.90
2019-01-17T20:46:16.888Z,1.70
2019-01-17T20:48:46.891Z,1.80
2019-01-17T20:51:17.093Z,1.80
2019-01-17T20:53:47.248Z,1.80
2019-01-17T20:56:17.882Z,1.80
2019-01-17T20:58:47.895Z,1.90
2019-01-17T21:01:34.103Z,1.80
2019-01-17T21:04:05.372Z,1.80
2019-01-17T21:06:35.223Z,1.80
2019-01-17T21:09:09.945Z,1.90
2019-01-17T21:11:40.211Z,1.80
2019-01-17T21:14:10.408Z,1.80
2019-01-17T21:16:41.108Z,1.80
2019-01-17T21:19:11.255Z,1.90
2019-01-17T21:21:41.568Z,1.90
2019-01-17T21:24:12.005Z,1.80
2019-01-17T21:26:42.757Z,1.80
2019-01-17T21:29:12.917Z,1.80
2019-01-17T21:31:43.336Z,1.80
2019-01-17T21:34:13.923Z,1.80
2019-01-17T21:36:44.253Z,1.80
2019-01-17T21:39:14.806Z,1.70
2019-01-17T21:41:44.799Z,1.60
2019-01-17T21:44:15.461Z,1.60
2019-01-17T21:46:46.294Z,1.60
2019-01-17T21:49:16.387Z,1.60
2019-01-17T21:51:46.705Z,1.60
2019-01-17T21:54:17.067Z,1.40
2019-01-17T21:56:47.165Z,1.60
2019-01-17T21:59:17.592Z,1.60
2019-01-17T22:01:47.810Z,1.60
2019-01-17T22:04:17.829Z,1.50
2019-01-17T22:06:47.963Z,1.50
2019-01-17T22:09:18.023Z,1.40
2019-01-17T22:11:48.195Z,1.30
2019-01-17T22:14:18.710Z,1.40
2019-01-17T22:16:48.896Z,1.50
2019-01-17T22:19:19.064Z,1.60
2019-01-17T22:21:49.085Z,1.50
2019-01-17T22:24:19.261Z,1.50
2019-01-17T22:26:49.214Z,1.50
2019-01-17T22:29:20.962Z,1.50
2019-01-17T22:31:52.161Z,1.50
2019-01-17T22:34:22.254Z,1.50
2019-01-17T22:36:52.701Z,1.50
2019-01-17T22:39:23.765Z,1.40
2019-01-17T22:41:54.030Z,1.50
2019-01-17T22:44:24.368Z,1.50
2019-01-17T22:46:55.276Z,1.60
2019-01-17T22:49:25.356Z,1.50
2019-01-17T22:51:55.443Z,1.60
2019-01-17T22:54:25.603Z,1.60
2019-01-17T22:57:00.952Z,1.60
2019-01-17T22:59:31.076Z,1.60
2019-01-17T23:02:06.748Z,1.60
2019-01-17T23:04:37.573Z,1.50
2019-01-17T23:07:07.929Z,1.70
2019-01-17T23:09:37.961Z,1.70
2019-01-17T23:12:08.438Z,1.50
2019-01-17T23:14:38.701Z,1.50
2019-01-17T23:17:09.235Z,1.50
2019-01-17T23:19:39.969Z,1.50
2019-01-17T23:22:09.988Z,1.60
2019-01-17T23:24:40.205Z,1.70
2019-01-17T23:27:11.182Z,1.70
2019-01-17T23:29:41.182Z,1.70
2019-01-17T23:32:11.387Z,1.70
2019-01-17T23:34:41.863Z,1.80
2019-01-17T23:37:11.837Z,1.80
2019-01-17T23:39:41.868Z,1.70
2019-01-17T23:42:12.762Z,1.80
2019-01-17T23:44:43.013Z,1.70
2019-01-17T23:47:13.135Z,1.70
2019-01-17T23:49:43.492Z,1.80
2019-01-17T23:52:13.504Z,1.80
2019-01-17T23:54:43.704Z,1.70
2019-01-17T23:57:19.999Z,1.70
2019-01-17T23:59:50.288Z,1.70
